Time;durP1;ratioP1;P1;durP2;ratioP2;P2;SDS_P1;SDS_P2;PMS_P1;PMS_P2;Temp;Humidity;BMP_temperature;BMP_pressure;BME280_temperature;BME280_humidity;BME280_pressure;Samples;Min_cycle;Max_cycle;Signal;HPM_P1;HPM_P2
2021/06/18 00:00:11;;;;;;;11.40;10.20;;;26.40;99.40;;;;;;5058933;28;20039;-87
2021/06/18 00:02:37;;;;;;;11.07;9.98;;;26.40;99.40;;;;;;5092574;28;20123;-86
2021/06/18 00:05:06;;;;;;;11.93;9.88;;;26.40;99.40;;;;;;5059484;28;20126;-87
2021/06/18 00:07:31;;;;;;;12.18;10.63;;;26.40;99.40;;;;;;5093433;28;20081;-87
2021/06/18 00:09:57;;;;;;;11.60;10.40;;;26.40;99.40;;;;;;5058794;28;20474;-86
2021/06/18 00:12:23;;;;;;;13.32;11.02;;;26.40;99.40;;;;;;5092095;28;20032;-87
2021/06/18 00:14:48;;;;;;;12.30;11.00;;;26.40;99.40;;;;;;5075545;28;20123;-85
2021/06/18 00:17:14;;;;;;;12.15;10.55;;;26.40;99.40;;;;;;5075239;28;20456;-87
2021/06/18 00:19:40;;;;;;;12.43;10.45;;;26.40;99.40;;;;;;5058733;28;20086;-87
2021/06/18 00:22:05;;;;;;;12.70;10.82;;;26.40;99.40;;;;;;5092158;28;20056;-87
2021/06/18 00:24:31;;;;;;;11.75;10.55;;;26.40;99.40;;;;;;5091728;28;20394;-87
2021/06/18 00:26:57;;;;;;;13.10;11.35;;;26.40;99.30;;;;;;5058791;28;20110;-87
2021/06/18 00:29:22;;;;;;;12.40;10.93;;;26.40;99.30;;;;;;5074821;28;20050;-87
2021/06/18 00:31:48;;;;;;;13.02;10.65;;;26.40;99.40;;;;;;5075131;28;20474;-87
2021/06/18 00:34:14;;;;;;;10.63;9.27;;;26.40;99.40;;;;;;5074667;28;20119;-88
2021/06/18 00:36:39;;;;;;;11.88;10.50;;;26.40;99.30;;;;;;5075312;28;20035;-86
2021/06/18 00:39:05;;;;;;;10.73;9.23;;;26.40;99.30;;;;;;5075083;28;20367;-87
2021/06/18 00:41:31;;;;;;;10.02;9.02;;;26.40;99.30;;;;;;5096178;28;20028;-86
2021/06/18 00:43:57;;;;;;;12.40;10.40;;;26.40;99.30;;;;;;5084816;28;20035;-87
2021/06/18 00:46:23;;;;;;;9.68;8.65;;;26.40;99.30;;;;;;5097736;28;20032;-87
2021/06/18 00:48:50;;;;;;;9.80;8.80;;;26.40;99.30;;;;;;5098631;28;20066;-86
2021/06/18 00:51:16;;;;;;;10.18;8.95;;;26.40;99.30;;;;;;5081225;28;20032;-87
2021/06/18 00:53:42;;;;;;;9.25;8.20;;;26.40;99.30;;;;;;5079448;28;20371;-87
2021/06/18 00:56:07;;;;;;;8.98;8.07;;;26.40;99.30;;;;;;5096430;28;20032;-86
2021/06/18 00:58:33;;;;;;;8.32;7.50;;;26.40;99.30;;;;;;5078990;28;20024;-87
2021/06/18 01:00:59;;;;;;;8.02;7.22;;;26.40;99.30;;;;;;5095745;28;20028;-87
2021/06/18 01:03:25;;;;;;;7.75;6.88;;;26.40;99.30;;;;;;5062178;28;20070;-87
2021/06/18 01:05:53;;;;;;;8.77;7.20;;;26.40;99.30;;;;;;5062464;28;20024;-87
2021/06/18 01:08:27;;;;;;;7.35;6.65;;;26.40;99.30;;;;;;5079275;28;20347;-87
2021/06/18 01:11:09;;;;;;;6.90;6.20;;;26.40;99.30;;;;;;5097187;28;20044;-87
2021/06/18 01:13:37;;;;;;;7.43;6.45;;;26.40;99.30;;;;;;5096752;28;20473;-86
2021/06/18 01:16:16;;;;;;;7.03;6.32;;;26.40;99.30;;;;;;5095716;28;20492;-87
2021/06/18 01:18:46;;;;;;;6.85;6.15;;;26.40;99.30;;;;;;5095397;28;20028;-86
2021/06/18 01:21:34;;;;;;;6.88;6.18;;;26.40;99.40;;;;;;5095674;28;20044;-86
2021/06/18 01:24:08;;;;;;;6.00;5.38;;;26.40;99.40;;;;;;5095502;28;20024;-86
2021/06/18 01:27:06;;;;;;;6.78;5.80;;;26.40;99.40;;;;;;5101834;28;20157;-86
2021/06/18 01:29:48;;;;;;;5.75;5.18;;;26.40;99.40;;;;;;5104136;28;20122;-86
2021/06/18 01:32:45;;;;;;;6.28;5.60;;;26.40;99.40;;;;;;5095683;28;20028;-86
2021/06/18 01:35:17;;;;;;;6.28;5.60;;;26.40;99.40;;;;;;5086258;28;20043;-85
2021/06/18 01:37:47;;;;;;;5.80;5.30;;;26.40;99.50;;;;;;5095082;28;20032;-85
2021/06/18 01:40:15;;;;;;;6.30;5.47;;;26.40;99.50;;;;;;5095434;28;20028;-86
2021/06/18 01:42:43;;;;;;;6.22;5.35;;;26.40;99.60;;;;;;5094715;28;20105;-86
2021/06/18 01:45:12;;;;;;;6.03;5.22;;;26.40;99.50;;;;;;5078007;28;20050;-86
2021/06/18 01:47:39;;;;;;;5.80;5.00;;;26.40;99.50;;;;;;5095343;28;20027;-86
2021/06/18 01:50:06;;;;;;;6.50;5.80;;;26.40;99.60;;;;;;5094880;28;20028;-86
2021/06/18 01:52:32;;;;;;;6.13;5.53;;;26.40;99.60;;;;;;5060159;28;20492;-86
2021/06/18 01:55:01;;;;;;;5.57;5.00;;;26.40;99.70;;;;;;5078281;28;20032;-87
2021/06/18 01:57:28;;;;;;;5.50;5.00;;;26.50;99.80;;;;;;5077640;28;20036;-86
2021/06/18 01:59:57;;;;;;;6.03;5.43;;;26.40;99.70;;;;;;5094842;28;20092;-86
2021/06/18 02:02:25;;;;;;;5.38;4.88;;;26.50;99.80;;;;;;5094692;28;20028;-86
2021/06/18 02:04:53;;;;;;;6.70;6.00;;;26.40;99.80;;;;;;5094923;28;20024;-87
2021/06/18 02:07:19;;;;;;;7.13;6.15;;;26.50;99.80;;;;;;5078348;28;20032;-87
2021/06/18 02:09:47;;;;;;;7.00;6.00;;;26.50;99.80;;;;;;5077722;28;20032;-86
2021/06/18 02:12:16;;;;;;;7.18;6.47;;;26.50;99.80;;;;;;5096114;28;20028;-86
2021/06/18 02:14:43;;;;;;;7.95;7.15;;;26.40;99.80;;;;;;5095852;28;20032;-86
2021/06/18 02:17:10;;;;;;;7.97;6.97;;;26.40;99.80;;;;;;5077816;28;20035;-86
2021/06/18 02:19:38;;;;;;;7.13;6.40;;;26.50;99.80;;;;;;5094169;28;20462;-86
2021/06/18 02:22:07;;;;;;;7.50;6.70;;;26.50;99.80;;;;;;5094267;28;20048;-86
2021/06/18 02:24:34;;;;;;;7.05;6.35;;;26.50;99.80;;;;;;5095624;28;20142;-86
2021/06/18 02:27:03;;;;;;;7.32;6.63;;;26.40;99.80;;;;;;5094288;28;20052;-86
2021/06/18 02:29:29;;;;;;;6.85;6.10;;;26.50;99.90;;;;;;5093853;28;20016;-87
2021/06/18 02:31:58;;;;;;;6.43;5.82;;;26.50;99.90;;;;;;5061036;28;20078;-86
2021/06/18 02:34:24;;;;;;;7.00;6.10;;;26.50;99.80;;;;;;5094235;28;20024;-86
2021/06/18 02:36:49;;;;;;;6.30;5.70;;;26.50;99.80;;;;;;5077177;28;20035;-86
2021/06/18 02:39:15;;;;;;;6.20;5.60;;;26.50;99.80;;;;;;5077409;28;20032;-88
2021/06/18 02:41:41;;;;;;;6.13;5.53;;;26.50;99.90;;;;;;5093553;28;20490;-87
2021/06/18 02:44:07;;;;;;;5.95;5.25;;;26.50;99.90;;;;;;5093664;28;20024;-86
2021/06/18 02:46:48;;;;;;;6.50;5.82;;;26.50;99.90;;;;;;5093795;28;20030;-87
2021/06/18 02:49:18;;;;;;;6.82;6.15;;;26.50;99.90;;;;;;5093969;28;20490;-87
2021/06/18 02:52:07;;;;;;;6.15;5.55;;;26.50;99.90;;;;;;5093264;28;20040;-87
2021/06/18 02:54:42;;;;;;;6.22;5.63;;;26.50;99.90;;;;;;5094697;28;20089;-86
2021/06/18 02:57:25;;;;;;;7.32;6.03;;;26.50;99.90;;;;;;5093879;28;20035;-86
2021/06/18 03:00:06;;;;;;;6.22;5.63;;;26.50;99.90;;;;;;5093607;28;20027;-86
2021/06/18 03:02:39;;;;;;;7.28;6.40;;;26.50;99.90;;;;;;5093165;28;20035;-87
2021/06/18 03:05:08;;;;;;;7.30;6.57;;;26.40;99.90;;;;;;5096245;28;20433;-88
2021/06/18 03:07:36;;;;;;;7.85;6.63;;;26.50;99.90;;;;;;5097593;28;20028;-89
2021/06/18 03:10:06;;;;;;;7.55;6.72;;;26.50;99.90;;;;;;5096672;28;20058;-87
2021/06/18 03:12:33;;;;;;;8.95;7.80;;;26.50;99.90;;;;;;5093441;28;20024;-88
2021/06/18 03:15:07;;;;;;;8.23;7.35;;;26.50;99.90;;;;;;5075933;28;20481;-87
2021/06/18 03:17:36;;;;;;;8.05;7.22;;;26.50;99.90;;;;;;5060694;28;20033;-86
2021/06/18 03:20:07;;;;;;;8.68;7.78;;;26.50;99.90;;;;;;5055705;28;20127;-87
2021/06/18 03:22:36;;;;;;;10.98;8.57;;;26.50;99.90;;;;;;5055480;28;20053;-87
2021/06/18 03:25:03;;;;;;;8.15;7.30;;;26.50;99.90;;;;;;5056438;28;20135;-88
2021/06/18 03:27:32;;;;;;;8.18;7.30;;;26.50;99.90;;;;;;5073855;28;20028;-89
2021/06/18 03:29:58;;;;;;;9.68;8.25;;;26.50;99.90;;;;;;5039758;28;20478;-86
2021/06/18 03:32:25;;;;;;;8.77;7.88;;;26.50;99.90;;;;;;5039476;28;20029;-86
2021/06/18 03:34:51;;;;;;;10.15;8.93;;;26.50;99.90;;;;;;5022746;28;20077;-86
2021/06/18 03:37:19;;;;;;;9.55;8.40;;;26.50;99.90;;;;;;5056002;28;20033;-86
2021/06/18 03:39:46;;;;;;;10.07;9.00;;;26.50;99.90;;;;;;5055708;28;20047;-86
2021/06/18 03:42:12;;;;;;;11.55;10.38;;;26.50;99.90;;;;;;5073798;28;20032;-86
2021/06/18 03:44:39;;;;;;;11.57;9.82;;;26.50;99.90;;;;;;5072225;28;20024;-86
2021/06/18 03:47:06;;;;;;;11.15;9.95;;;26.50;99.90;;;;;;5039159;28;20036;-86
2021/06/18 03:49:33;;;;;;;11.48;9.75;;;26.50;99.90;;;;;;5055767;28;20024;-87
2021/06/18 03:51:59;;;;;;;10.80;9.70;;;26.50;99.90;;;;;;5055677;28;20028;-86
2021/06/18 03:54:25;;;;;;;13.18;10.55;;;26.50;99.90;;;;;;5038865;28;20047;-86
2021/06/18 03:56:52;;;;;;;12.68;10.23;;;26.50;99.90;;;;;;5038810;28;20037;-86
2021/06/18 03:59:21;;;;;;;11.38;9.82;;;26.50;99.90;;;;;;5072338;28;20024;-87
2021/06/18 04:01:53;;;;;;;11.75;9.75;;;26.50;99.90;;;;;;5055620;28;20506;-87
2021/06/18 04:04:22;;;;;;;11.10;9.43;;;26.50;99.90;;;;;;5055224;28;20028;-86
2021/06/18 04:06:48;;;;;;;9.48;8.35;;;26.50;99.90;;;;;;5054622;28;20386;-87
2021/06/18 04:09:17;;;;;;;9.85;8.82;;;26.50;99.90;;;;;;5022625;28;20024;-86
2021/06/18 04:11:45;;;;;;;9.10;8.20;;;26.50;99.90;;;;;;5075445;28;20032;-88
2021/06/18 04:14:12;;;;;;;9.27;8.25;;;26.50;99.90;;;;;;5057076;28;20028;-87
2021/06/18 04:16:40;;;;;;;9.30;8.40;;;26.50;99.90;;;;;;5055433;28;20033;-87
2021/06/18 04:19:08;;;;;;;9.45;8.40;;;26.50;99.90;;;;;;5055194;28;20028;-86
2021/06/18 04:21:35;;;;;;;10.27;8.88;;;26.50;99.90;;;;;;5055333;28;20053;-87
2021/06/18 04:24:01;;;;;;;11.13;9.68;;;26.50;99.90;;;;;;5055298;28;20359;-87
2021/06/18 04:26:27;;;;;;;10.40;9.30;;;26.50;99.90;;;;;;5055414;28;20043;-87
2021/06/18 04:28:53;;;;;;;10.35;9.07;;;26.50;99.90;;;;;;5055171;28;20371;-87
2021/06/18 04:31:19;;;;;;;10.93;9.55;;;26.50;99.90;;;;;;5055161;28;20498;-87
2021/06/18 04:33:44;;;;;;;12.30;9.73;;;26.50;99.90;;;;;;5054885;28;20024;-86
2021/06/18 04:36:10;;;;;;;10.75;9.65;;;26.50;99.90;;;;;;5038504;28;20374;-86
2021/06/18 04:38:40;;;;;;;11.32;9.68;;;26.50;99.90;;;;;;5055152;28;20074;-88
2021/06/18 04:41:06;;;;;;;12.27;10.45;;;26.50;99.90;;;;;;5022221;28;20032;-87
2021/06/18 04:43:31;;;;;;;9.75;8.75;;;26.50;99.90;;;;;;5073005;28;20020;-86
2021/06/18 04:45:57;;;;;;;11.55;10.10;;;26.50;99.90;;;;;;5055689;28;20020;-87
2021/06/18 04:48:23;;;;;;;12.00;10.07;;;26.50;99.90;;;;;;5057387;28;20024;-86
2021/06/18 04:50:52;;;;;;;10.57;9.45;;;26.50;99.90;;;;;;5055976;28;20041;-86
2021/06/18 04:53:17;;;;;;;10.52;9.32;;;26.50;99.90;;;;;;5038860;28;20035;-86
2021/06/18 04:55:43;;;;;;;11.73;10.07;;;26.50;99.90;;;;;;5038689;28;20040;-86
2021/06/18 04:58:09;;;;;;;11.70;10.15;;;26.50;99.90;;;;;;5071729;28;20028;-87
2021/06/18 05:00:35;;;;;;;11.23;9.75;;;26.50;99.90;;;;;;5055030;28;20067;-86
2021/06/18 05:03:01;;;;;;;11.35;10.15;;;26.50;99.90;;;;;;5038314;28;20029;-86
2021/06/18 05:05:28;;;;;;;11.88;10.32;;;26.50;99.90;;;;;;5055117;28;20367;-86
2021/06/18 05:07:55;;;;;;;11.68;10.02;;;26.50;99.90;;;;;;5072661;28;20031;-87
2021/06/18 05:10:22;;;;;;;11.77;10.18;;;26.50;99.90;;;;;;5072818;28;20036;-86
2021/06/18 05:12:48;;;;;;;11.02;9.93;;;26.50;99.90;;;;;;5054803;28;20032;-86
2021/06/18 05:15:14;;;;;;;10.70;9.60;;;26.50;99.90;;;;;;5073118;28;20020;-87
2021/06/18 05:17:40;;;;;;;12.30;10.45;;;26.50;99.90;;;;;;5038278;28;20029;-88
2021/06/18 05:20:06;;;;;;;11.40;9.38;;;26.50;99.90;;;;;;5054957;28;20120;-87
2021/06/18 05:22:32;;;;;;;10.55;9.45;;;26.50;99.90;;;;;;5072871;28;20040;-85
2021/06/18 05:24:58;;;;;;;11.73;9.52;;;26.50;99.90;;;;;;5054423;28;20456;-86
2021/06/18 05:27:24;;;;;;;12.50;10.02;;;26.50;99.90;;;;;;5024395;28;20405;-87
2021/06/18 05:29:50;;;;;;;10.35;9.25;;;26.50;99.90;;;;;;5057885;28;20115;-87
2021/06/18 05:32:17;;;;;;;10.63;9.40;;;26.50;99.90;;;;;;5041672;28;20033;-87
2021/06/18 05:34:43;;;;;;;9.55;8.55;;;26.50;99.90;;;;;;5058290;28;20029;-88
2021/06/18 05:37:09;;;;;;;9.90;8.82;;;26.50;99.90;;;;;;5041943;28;20052;-87
2021/06/18 05:39:35;;;;;;;10.43;9.32;;;26.50;99.90;;;;;;5075791;28;20469;-87
2021/06/18 05:42:01;;;;;;;10.18;9.13;;;26.50;99.90;;;;;;5024960;28;20025;-87
2021/06/18 05:44:26;;;;;;;9.70;8.70;;;26.50;99.90;;;;;;5058251;28;20028;-86
2021/06/18 05:46:52;;;;;;;9.82;8.82;;;26.50;99.90;;;;;;5057745;28;20036;-86
2021/06/18 05:49:19;;;;;;;9.35;8.23;;;26.50;99.90;;;;;;5041177;28;20025;-86
2021/06/18 05:51:45;;;;;;;9.43;8.45;;;26.50;99.90;;;;;;5041284;28;20513;-86
2021/06/18 05:54:11;;;;;;;9.73;8.45;;;26.50;99.90;;;;;;5058049;28;20032;-86
2021/06/18 05:56:37;;;;;;;8.95;8.05;;;26.50;99.90;;;;;;5057427;28;20032;-85
2021/06/18 05:59:03;;;;;;;8.30;7.50;;;26.50;99.90;;;;;;5057305;28;20224;-86
2021/06/18 06:01:29;;;;;;;9.40;8.18;;;26.50;99.90;;;;;;5058416;28;20584;-85
2021/06/18 06:03:55;;;;;;;9.00;7.80;;;26.50;99.90;;;;;;5024522;28;20385;-86
2021/06/18 06:06:21;;;;;;;9.45;7.82;;;26.50;99.90;;;;;;5041258;28;20563;-86
2021/06/18 06:08:49;;;;;;;8.65;7.72;;;26.50;99.90;;;;;;5057592;28;20127;-86
2021/06/18 06:11:15;;;;;;;9.43;7.97;;;26.50;99.90;;;;;;5041378;28;20037;-86
2021/06/18 06:13:40;;;;;;;8.85;7.95;;;26.50;99.90;;;;;;5040977;28;20086;-87
2021/06/18 06:16:06;;;;;;;7.72;7.00;;;26.50;99.90;;;;;;5024217;28;20123;-88
2021/06/18 06:18:32;;;;;;;8.45;7.65;;;26.50;99.90;;;;;;5040807;28;20036;-88
2021/06/18 06:20:57;;;;;;;8.52;7.60;;;26.50;99.90;;;;;;5034287;28;20484;-87
2021/06/18 06:23:23;;;;;;;8.13;7.32;;;26.50;99.90;;;;;;5034953;28;20025;-86
2021/06/18 06:25:49;;;;;;;9.48;8.13;;;26.50;99.90;;;;;;5033982;28;20488;-87
2021/06/18 06:28:15;;;;;;;8.98;7.57;;;26.50;99.90;;;;;;5021764;28;20052;-86
2021/06/18 06:30:41;;;;;;;8.80;7.72;;;26.50;99.90;;;;;;5037724;28;20037;-86
2021/06/18 06:33:06;;;;;;;9.27;7.07;;;26.50;99.90;;;;;;5034456;28;20026;-87
2021/06/18 06:35:33;;;;;;;8.05;7.25;;;26.50;99.90;;;;;;5035749;28;20033;-87
2021/06/18 06:37:59;;;;;;;7.65;6.60;;;26.50;99.90;;;;;;5032003;28;20487;-87
2021/06/18 06:40:25;;;;;;;9.27;6.03;;;26.50;99.90;;;;;;5017611;28;20041;-86
2021/06/18 06:42:51;;;;;;;8.15;7.40;;;26.50;99.90;;;;;;5050423;28;20033;-87
2021/06/18 06:45:18;;;;;;;6.80;6.20;;;26.50;99.90;;;;;;5050648;28;20033;-89
2021/06/18 06:47:46;;;;;;;7.63;6.82;;;26.50;99.90;;;;;;5035532;28;20033;-87
2021/06/18 06:50:12;;;;;;;7.18;6.53;;;26.50;99.90;;;;;;5034208;28;20124;-87
2021/06/18 06:52:38;;;;;;;7.63;6.82;;;26.50;99.90;;;;;;5034202;28;20029;-87
2021/06/18 06:55:04;;;;;;;8.02;6.65;;;26.50;99.90;;;;;;5033733;28;20030;-88
2021/06/18 06:57:30;;;;;;;7.40;6.57;;;26.50;99.90;;;;;;5017180;28;20052;-88
2021/06/18 06:59:56;;;;;;;8.00;7.13;;;26.50;99.90;;;;;;5018902;28;20471;-88
2021/06/18 07:02:21;;;;;;;7.85;6.95;;;26.60;99.90;;;;;;5035861;28;20029;-88
2021/06/18 07:04:47;;;;;;;8.00;7.13;;;26.60;99.90;;;;;;5017259;28;20084;-88
2021/06/18 07:07:13;;;;;;;7.55;6.85;;;26.60;99.90;;;;;;5016889;28;20025;-88
2021/06/18 07:09:39;;;;;;;6.97;6.28;;;26.60;99.90;;;;;;5033524;28;20030;-88
2021/06/18 07:12:06;;;;;;;7.85;7.00;;;26.60;99.90;;;;;;5034604;28;20074;-89
2021/06/18 07:14:32;;;;;;;7.57;6.88;;;26.60;99.90;;;;;;5050149;28;20056;-88
2021/06/18 07:16:58;;;;;;;8.15;7.38;;;26.60;99.90;;;;;;5033726;28;20026;-88
2021/06/18 07:19:23;;;;;;;8.30;7.35;;;26.60;99.90;;;;;;5000807;28;20026;-88
2021/06/18 07:21:51;;;;;;;7.32;6.35;;;26.60;99.90;;;;;;5046536;28;20139;-88
2021/06/18 07:24:17;;;;;;;7.53;6.78;;;26.60;99.90;;;;;;5037047;28;20037;-88
2021/06/18 07:26:43;;;;;;;6.63;5.93;;;26.60;99.90;;;;;;5052937;28;20040;-88
2021/06/18 07:29:09;;;;;;;6.45;5.85;;;26.60;99.90;;;;;;5053540;28;20025;-88
2021/06/18 07:31:35;;;;;;;6.75;6.10;;;26.60;99.90;;;;;;5036879;28;20040;-89
2021/06/18 07:34:03;;;;;;;6.35;5.75;;;26.60;99.90;;;;;;5052895;28;20032;-88
2021/06/18 07:36:29;;;;;;;6.32;5.70;;;26.60;99.90;;;;;;5036896;28;20039;-88
2021/06/18 07:38:54;;;;;;;6.07;5.47;;;26.60;99.90;;;;;;5039521;28;20036;-90
2021/06/18 07:41:20;;;;;;;6.18;5.57;;;26.60;99.90;;;;;;5021275;28;20479;-88
2021/06/18 07:43:46;;;;;;;6.18;5.57;;;26.60;99.90;;;;;;5039586;28;20036;-87
2021/06/18 07:46:11;;;;;;;6.22;5.70;;;26.60;99.90;;;;;;5038032;28;20418;-88
2021/06/18 07:48:37;;;;;;;5.68;5.03;;;26.60;99.90;;;;;;5020613;28;20498;-87
2021/06/18 07:51:03;;;;;;;5.63;5.13;;;26.60;99.90;;;;;;5037794;28;20482;-88
2021/06/18 07:53:28;;;;;;;5.32;4.72;;;26.60;99.90;;;;;;5038123;28;20036;-88
2021/06/18 07:55:54;;;;;;;5.70;5.10;;;26.60;99.90;;;;;;5035642;28;20029;-88
2021/06/18 07:58:20;;;;;;;4.63;4.13;;;26.70;99.90;;;;;;5036094;28;20029;-87
2021/06/18 08:00:47;;;;;;;5.55;4.95;;;26.70;99.90;;;;;;5036360;28;20575;-90
2021/06/18 08:03:12;;;;;;;5.45;4.85;;;26.70;99.90;;;;;;5034925;28;20118;-88
2021/06/18 08:05:38;;;;;;;5.97;4.47;;;26.70;99.90;;;;;;5035654;28;20110;-88
2021/06/18 08:08:04;;;;;;;5.10;4.57;;;26.70;99.90;;;;;;5053840;28;20029;-88
2021/06/18 08:10:30;;;;;;;5.25;4.70;;;26.60;99.90;;;;;;5054306;28;20479;-88
2021/06/18 08:12:56;;;;;;;5.47;4.72;;;26.60;99.90;;;;;;5035639;28;20125;-88
2021/06/18 08:15:22;;;;;;;4.90;4.40;;;26.70;99.90;;;;;;5051934;28;20028;-88
2021/06/18 08:17:48;;;;;;;4.78;4.30;;;26.60;99.90;;;;;;5053336;28;20360;-88
2021/06/18 08:20:20;;;;;;;4.45;4.05;;;26.70;99.90;;;;;;5035343;28;20040;-88
2021/06/18 08:22:47;;;;;;;4.95;4.55;;;26.70;99.90;;;;;;5072046;28;20106;-87
2021/06/18 08:25:13;;;;;;;4.63;4.20;;;26.70;99.90;;;;;;5055201;28;20032;-87
2021/06/18 08:27:38;;;;;;;4.82;4.03;;;26.70;99.90;;;;;;5038724;28;20085;-87
2021/06/18 08:30:06;;;;;;;4.32;3.92;;;26.70;99.90;;;;;;5021999;28;20044;-88
2021/06/18 08:32:32;;;;;;;4.80;4.03;;;26.70;99.90;;;;;;5055783;28;20051;-88
2021/06/18 08:34:57;;;;;;;4.20;3.80;;;26.70;99.90;;;;;;5038853;28;20470;-87
2021/06/18 08:37:23;;;;;;;3.50;3.20;;;26.70;99.90;;;;;;5038663;28;20459;-88
2021/06/18 08:39:49;;;;;;;4.35;3.95;;;26.70;99.90;;;;;;5038781;28;20039;-87
2021/06/18 08:42:14;;;;;;;4.63;3.85;;;26.70;99.90;;;;;;5038633;28;20028;-88
2021/06/18 08:44:41;;;;;;;4.00;3.50;;;26.70;99.90;;;;;;5038701;28;20029;-88
2021/06/18 08:47:07;;;;;;;4.53;3.50;;;26.70;99.90;;;;;;5055379;28;20123;-88
2021/06/18 08:49:35;;;;;;;3.60;3.30;;;26.80;99.90;;;;;;5038390;28;20494;-89
2021/06/18 08:52:01;;;;;;;3.88;3.58;;;26.70;99.90;;;;;;5055407;28;20060;-89
2021/06/18 08:54:41;;;;;;;3.70;3.40;;;26.80;99.90;;;;;;5039289;28;20025;-89
2021/06/18 08:57:15;;;;;;;3.60;3.30;;;26.70;99.90;;;;;;5026218;28;20059;-89
2021/06/18 08:59:42;;;;;;;3.20;2.90;;;26.80;99.90;;;;;;5055172;28;20098;-89
2021/06/18 09:02:09;;;;;;;2.80;2.60;;;26.80;99.90;;;;;;5025024;28;20046;-89
2021/06/18 09:05:01;;;;;;;3.20;2.90;;;26.80;99.90;;;;;;5042991;28;20039;-89
2021/06/18 09:07:27;;;;;;;3.00;2.80;;;26.80;99.90;;;;;;5077018;28;20082;-88
2021/06/18 09:09:52;;;;;;;2.80;2.50;;;26.80;99.90;;;;;;5042635;28;20041;-88
2021/06/18 09:12:18;;;;;;;2.70;2.50;;;26.80;99.90;;;;;;5041980;28;20370;-87
2021/06/18 09:14:44;;;;;;;2.65;2.45;;;26.90;99.90;;;;;;5041869;28;20475;-88
2021/06/18 09:17:19;;;;;;;2.60;2.40;;;26.90;99.90;;;;;;5041984;28;20078;-87
2021/06/18 09:19:49;;;;;;;2.10;2.00;;;26.90;99.90;;;;;;5058741;28;20024;-87
2021/06/18 09:22:21;;;;;;;2.50;2.30;;;26.90;99.90;;;;;;5058095;28;20056;-87
2021/06/18 09:24:59;;;;;;;2.40;2.20;;;26.90;99.90;;;;;;5058614;28;20025;-87
2021/06/18 09:27:39;;;;;;;2.20;2.00;;;26.90;99.90;;;;;;5058289;28;20028;-87
2021/06/18 09:30:26;;;;;;;2.28;2.08;;;26.90;99.90;;;;;;5076526;28;20467;-89
2021/06/18 09:33:01;;;;;;;1.83;1.73;;;27.00;99.90;;;;;;5058753;28;20031;-87
2021/06/18 09:35:28;;;;;;;2.00;1.90;;;27.00;99.90;;;;;;5058182;28;20024;-87
2021/06/18 09:37:59;;;;;;;1.65;1.55;;;27.00;99.90;;;;;;5058601;28;20104;-87
2021/06/18 09:40:26;;;;;;;1.52;1.42;;;27.00;99.90;;;;;;5076069;28;20056;-87
2021/06/18 09:42:56;;;;;;;1.50;1.40;;;27.10;99.90;;;;;;5058296;28;20028;-87
2021/06/18 09:45:23;;;;;;;1.40;1.30;;;27.00;99.90;;;;;;5076090;28;20103;-86
2021/06/18 09:47:49;;;;;;;1.48;1.38;;;27.10;99.90;;;;;;5060237;28;20458;-86
2021/06/18 09:50:15;;;;;;;1.70;1.60;;;27.10;99.90;;;;;;5054622;28;20041;-87
2021/06/18 09:52:42;;;;;;;1.55;1.45;;;27.10;99.90;;;;;;5079081;28;20074;-87
2021/06/18 09:55:08;;;;;;;1.63;1.52;;;27.10;99.90;;;;;;5041745;28;20043;-87
2021/06/18 09:57:44;;;;;;;1.70;1.60;;;27.10;99.90;;;;;;5076070;28;20036;-86
2021/06/18 10:00:13;;;;;;;1.20;1.10;;;27.10;99.90;;;;;;5079155;28;20028;-87
2021/06/18 10:02:43;;;;;;;1.38;1.27;;;27.10;99.90;;;;;;5096287;28;20024;-86
2021/06/18 10:05:14;;;;;;;1.40;1.30;;;27.20;99.90;;;;;;5094549;28;20031;-86
2021/06/18 10:07:42;;;;;;;1.45;1.35;;;27.20;99.90;;;;;;5094840;28;20031;-86
2021/06/18 10:10:14;;;;;;;1.10;1.10;;;27.20;99.90;;;;;;5061196;28;20040;-87
2021/06/18 10:12:41;;;;;;;1.00;1.00;;;27.20;99.90;;;;;;5094839;28;20073;-87
2021/06/18 10:15:10;;;;;;;1.15;1.10;;;27.20;99.90;;;;;;5095583;28;20047;-87
2021/06/18 10:17:37;;;;;;;1.20;1.10;;;27.30;99.90;;;;;;5093486;28;20116;-87
2021/06/18 10:20:06;;;;;;;1.40;1.30;;;27.30;99.90;;;;;;5078357;28;20043;-87
2021/06/18 10:22:34;;;;;;;1.30;1.20;;;27.30;99.90;;;;;;5093891;28;20090;-87
2021/06/18 10:25:05;;;;;;;1.30;1.20;;;27.30;99.90;;;;;;5095039;28;20028;-86
2021/06/18 10:27:44;;;;;;;1.40;1.30;;;27.30;99.90;;;;;;5094716;28;20028;-86
2021/06/18 10:30:34;;;;;;;1.23;1.13;;;27.30;99.90;;;;;;5095202;28;20036;-85
2021/06/18 10:33:21;;;;;;;1.33;1.08;;;27.40;99.90;;;;;;5095460;28;20122;-86
2021/06/18 10:35:52;;;;;;;1.30;1.20;;;27.40;99.90;;;;;;5095325;28;20028;-86
2021/06/18 10:38:29;;;;;;;1.35;1.10;;;27.40;99.90;;;;;;5094689;28;20528;-87
2021/06/18 10:40:56;;;;;;;0.93;0.90;;;27.40;99.90;;;;;;5094550;28;20414;-86
2021/06/18 10:43:21;;;;;;;1.20;1.10;;;27.40;99.90;;;;;;5094002;28;20500;-87
2021/06/18 10:45:59;;;;;;;0.98;0.98;;;27.40;99.90;;;;;;5077571;28;20024;-87
2021/06/18 10:48:44;;;;;;;1.13;1.02;;;27.40;99.90;;;;;;5093890;28;20024;-87
2021/06/18 10:51:29;;;;;;;1.33;1.20;;;27.50;99.90;;;;;;5094121;28;20024;-87
2021/06/18 10:54:01;;;;;;;1.20;1.10;;;27.50;99.90;;;;;;5094138;28;20040;-87
2021/06/18 10:56:45;;;;;;;1.30;1.20;;;27.50;99.90;;;;;;5093752;28;20023;-87
2021/06/18 10:59:15;;;;;;;1.40;1.30;;;27.50;99.90;;;;;;5094105;28;20024;-87
2021/06/18 11:01:42;;;;;;;1.17;1.10;;;27.50;99.90;;;;;;5095327;28;20060;-86
2021/06/18 11:04:07;;;;;;;1.30;1.20;;;27.50;99.90;;;;;;5094209;28;20067;-87
2021/06/18 11:06:43;;;;;;;0.95;0.90;;;27.50;99.90;;;;;;5097313;28;20583;-86
2021/06/18 11:09:09;;;;;;;1.17;1.10;;;27.50;99.90;;;;;;5095583;28;20063;-87
2021/06/18 11:11:34;;;;;;;1.08;1.00;;;27.50;99.90;;;;;;5061716;28;20071;-86
2021/06/18 11:14:10;;;;;;;1.15;1.10;;;27.50;99.90;;;;;;5095423;28;20374;-86
2021/06/18 11:16:40;;;;;;;1.10;1.00;;;27.50;99.90;;;;;;5060725;28;20127;-86
2021/06/18 11:19:23;;;;;;;1.17;1.10;;;27.50;99.90;;;;;;5093736;28;20055;-86
2021/06/18 11:21:49;;;;;;;1.15;1.10;;;27.50;99.90;;;;;;5094593;28;20048;-86
2021/06/18 11:24:42;;;;;;;1.13;1.02;;;27.50;99.90;;;;;;5059185;28;20129;-87
2021/06/18 11:27:24;;;;;;;0.90;0.90;;;27.50;99.90;;;;;;5094749;28;20027;-86
2021/06/18 11:30:21;;;;;;;1.17;1.08;;;27.50;99.90;;;;;;5093386;28;20100;-86
2021/06/18 11:32:46;;;;;;;0.95;0.95;;;27.50;99.90;;;;;;5093391;28;20028;-86
2021/06/18 11:35:32;;;;;;;1.20;1.10;;;27.50;99.90;;;;;;5076270;28;20122;-86
2021/06/18 11:37:59;;;;;;;1.70;1.17;;;27.50;99.90;;;;;;5075362;28;20032;-87
2021/06/18 11:40:25;;;;;;;0.95;0.95;;;27.50;99.90;;;;;;5076041;28;20036;-86
2021/06/18 11:42:51;;;;;;;1.20;1.08;;;27.60;99.90;;;;;;5093153;28;20424;-86
2021/06/18 11:45:17;;;;;;;1.02;1.00;;;27.50;99.90;;;;;;5076072;28;20390;-88
2021/06/18 11:47:43;;;;;;;1.40;1.30;;;27.60;99.90;;;;;;5092684;28;20024;-87
2021/06/18 11:50:09;;;;;;;1.40;1.30;;;27.60;99.90;;;;;;5075887;28;20036;-86
2021/06/18 11:52:35;;;;;;;1.27;1.17;;;27.60;99.90;;;;;;5093459;28;20102;-86
2021/06/18 11:55:01;;;;;;;1.20;1.10;;;27.60;99.90;;;;;;5075854;28;20122;-86
2021/06/18 11:57:27;;;;;;;1.25;1.15;;;27.60;99.90;;;;;;5093628;28;20538;-86
2021/06/18 12:00:00;;;;;;;1.20;1.10;;;27.60;99.90;;;;;;5092691;28;20036;-87
2021/06/18 12:02:31;;;;;;;1.60;1.50;;;27.60;99.90;;;;;;5092595;28;20032;-87
2021/06/18 12:05:01;;;;;;;1.20;1.10;;;27.60;99.90;;;;;;5093773;28;20028;-86
2021/06/18 12:07:34;;;;;;;1.42;1.33;;;27.60;99.90;;;;;;5092307;28;20028;-86
2021/06/18 12:09:59;;;;;;;1.30;1.20;;;27.60;99.90;;;;;;5092369;28;20028;-86
2021/06/18 12:12:25;;;;;;;1.40;1.30;;;27.60;99.90;;;;;;5075580;28;20077;-86
2021/06/18 12:14:55;;;;;;;1.50;1.40;;;27.60;99.90;;;;;;5058985;28;20036;-86
2021/06/18 12:17:21;;;;;;;1.70;1.60;;;27.70;99.90;;;;;;5092275;28;20139;-85
2021/06/18 12:19:49;;;;;;;1.60;1.50;;;27.70;99.90;;;;;;5092622;28;20473;-85
2021/06/18 12:22:28;;;;;;;1.63;1.52;;;27.70;99.90;;;;;;5093042;28;20047;-85
2021/06/18 12:24:58;;;;;;;1.80;1.70;;;27.70;99.90;;;;;;5075666;28;20028;-85
2021/06/18 12:27:33;;;;;;;2.10;1.90;;;27.70;99.90;;;;;;5093260;28;20020;-86
2021/06/18 12:30:03;;;;;;;1.80;1.70;;;27.70;99.90;;;;;;5092089;28;20030;-86
2021/06/18 12:32:32;;;;;;;2.28;2.08;;;27.80;99.90;;;;;;5093766;28;20035;-86
2021/06/18 12:35:08;;;;;;;2.08;1.88;;;27.70;99.90;;;;;;5091810;28;20024;-85
2021/06/18 12:37:36;;;;;;;1.90;1.80;;;27.80;99.90;;;;;;5091719;28;20073;-85
2021/06/18 12:40:29;;;;;;;1.70;1.60;;;27.80;99.90;;;;;;5091283;28;20032;-85
2021/06/18 12:42:58;;;;;;;1.90;1.80;;;27.80;99.90;;;;;;5093569;28;20043;-86
2021/06/18 12:45:26;;;;;;;2.38;2.17;;;27.80;99.90;;;;;;5091361;28;20109;-86
2021/06/18 12:48:16;;;;;;;2.08;1.90;;;27.80;99.90;;;;;;5092017;28;20473;-87
2021/06/18 12:50:48;;;;;;;2.30;2.10;;;27.80;99.90;;;;;;5081533;28;20069;-86